Time;durP1;ratioP1;P1;durP2;ratioP2;P2;SDS_P1;SDS_P2;PMS_P1;PMS_P2;Temp;Humidity;BMP_temperature;BMP_pressure;BME280_temperature;BME280_humidity;BME280_pressure;Samples;Min_cycle;Max_cycle;Signal;HPM_P1;HPM_P2
2021/06/20 00:00:59;;;;;;;34.75;29.98;;;19.60;92.70;;;;;;5075403;28;20034;-77
2021/06/20 00:03:25;;;;;;;34.95;31.10;;;19.60;92.70;;;;;;5075393;28;20111;-78
2021/06/20 00:05:54;;;;;;;38.10;30.95;;;19.60;92.80;;;;;;5074995;28;20085;-79
2021/06/20 00:08:21;;;;;;;36.72;32.20;;;19.60;92.90;;;;;;5075173;28;20467;-78
2021/06/20 00:10:49;;;;;;;35.20;30.83;;;19.60;92.80;;;;;;5076392;28;20033;-78
2021/06/20 00:13:15;;;;;;;36.95;31.88;;;19.60;92.90;;;;;;5075247;28;20033;-78
2021/06/20 00:15:41;;;;;;;38.03;33.50;;;19.70;93.20;;;;;;5076315;28;20052;-78
2021/06/20 00:18:07;;;;;;;33.83;29.30;;;19.60;93.10;;;;;;5076269;28;20130;-81
2021/06/20 00:20:38;;;;;;;41.50;35.70;;;19.60;93.20;;;;;;5074982;28;20471;-78
2021/06/20 00:23:04;;;;;;;35.83;31.85;;;19.70;93.50;;;;;;5076084;28;20025;-78
2021/06/20 00:25:30;;;;;;;42.42;35.38;;;19.70;93.40;;;;;;5076133;28;20028;-79
2021/06/20 00:27:56;;;;;;;39.63;33.50;;;19.70;93.50;;;;;;5074842;28;20032;-77
2021/06/20 00:30:25;;;;;;;38.55;31.05;;;19.70;93.50;;;;;;5074929;28;20383;-80
2021/06/20 00:32:52;;;;;;;34.75;30.98;;;19.70;93.50;;;;;;5075908;28;20039;-79
2021/06/20 00:35:19;;;;;;;35.90;30.80;;;19.80;93.50;;;;;;5076015;28;20012;-79
2021/06/20 00:37:45;;;;;;;39.70;31.88;;;19.80;93.70;;;;;;5074685;28;20043;-79
2021/06/20 00:40:11;;;;;;;35.10;30.35;;;19.80;93.70;;;;;;5075957;28;20030;-78
2021/06/20 00:42:37;;;;;;;34.28;29.17;;;19.80;93.70;;;;;;5074605;28;20035;-80
2021/06/20 00:45:05;;;;;;;35.85;30.67;;;19.80;93.70;;;;;;5075850;28;20021;-80
2021/06/20 00:47:31;;;;;;;36.25;30.75;;;19.80;93.80;;;;;;5074441;28;20048;-79
2021/06/20 00:49:56;;;;;;;38.20;31.08;;;19.80;93.80;;;;;;5074581;28;20036;-81
2021/06/20 00:52:22;;;;;;;33.58;29.85;;;19.80;93.80;;;;;;5057750;28;20059;-80
2021/06/20 00:54:48;;;;;;;36.53;30.85;;;19.90;93.90;;;;;;5091238;28;20036;-80
2021/06/20 00:57:19;;;;;;;34.17;30.50;;;19.90;93.90;;;;;;5075408;28;20032;-80
2021/06/20 00:59:46;;;;;;;36.65;31.10;;;19.90;93.90;;;;;;5075228;28;20049;-80
2021/06/20 01:02:13;;;;;;;36.88;30.40;;;19.90;93.90;;;;;;5074171;28;20093;-81
2021/06/20 01:04:40;;;;;;;35.17;30.52;;;20.00;94.10;;;;;;5074115;28;20060;-80
2021/06/20 01:07:06;;;;;;;37.15;30.92;;;20.00;94.10;;;;;;5090920;28;20434;-81
2021/06/20 01:09:32;;;;;;;35.13;28.10;;;20.00;94.10;;;;;;5057482;28;20017;-79
2021/06/20 01:11:59;;;;;;;36.38;30.92;;;20.00;94.10;;;;;;5074057;28;20139;-80
2021/06/20 01:14:25;;;;;;;34.80;29.00;;;20.10;94.20;;;;;;5073916;28;20028;-80
2021/06/20 01:16:54;;;;;;;31.73;28.25;;;20.10;94.10;;;;;;5074148;28;20025;-79
2021/06/20 01:19:20;;;;;;;32.00;26.92;;;20.10;94.10;;;;;;5073848;28;20028;-79
2021/06/20 01:21:48;;;;;;;33.90;27.88;;;20.10;94.20;;;;;;5057444;28;20039;-80
2021/06/20 01:24:13;;;;;;;29.67;26.02;;;20.10;94.20;;;;;;5090517;28;20025;-79
2021/06/20 01:26:39;;;;;;;29.20;25.98;;;20.10;94.20;;;;;;5073707;28;20031;-77
2021/06/20 01:29:08;;;;;;;35.33;30.15;;;20.10;94.20;;;;;;5073832;28;20036;-78
2021/06/20 01:31:35;;;;;;;35.55;29.70;;;20.10;94.30;;;;;;5073625;28;20033;-80
2021/06/20 01:34:02;;;;;;;40.13;32.15;;;20.10;94.80;;;;;;5073547;28;20041;-77
2021/06/20 01:36:30;;;;;;;36.80;30.75;;;20.10;94.60;;;;;;5057110;28;20111;-78
2021/06/20 01:38:56;;;;;;;36.83;30.17;;;20.00;94.60;;;;;;5090168;28;20036;-78
2021/06/20 01:41:22;;;;;;;33.15;28.73;;;20.00;94.50;;;;;;5074601;28;20035;-77
2021/06/20 01:43:47;;;;;;;35.08;28.75;;;20.00;94.40;;;;;;5073291;28;20039;-77
2021/06/20 01:46:13;;;;;;;33.95;28.08;;;20.00;94.70;;;;;;5073338;28;20559;-78
2021/06/20 01:48:38;;;;;;;37.55;30.17;;;20.00;94.50;;;;;;5073173;28;20028;-78
2021/06/20 01:51:08;;;;;;;36.10;30.23;;;20.00;94.40;;;;;;5073310;28;20029;-77
2021/06/20 01:53:34;;;;;;;33.88;29.63;;;20.00;94.50;;;;;;5074450;28;20039;-77
2021/06/20 01:56:00;;;;;;;34.28;29.48;;;20.00;94.40;;;;;;5074385;28;20139;-77
2021/06/20 01:58:26;;;;;;;33.03;28.88;;;20.00;94.40;;;;;;5056409;28;20049;-77
2021/06/20 02:00:53;;;;;;;34.03;28.95;;;20.00;94.40;;;;;;5073104;28;20044;-77
2021/06/20 02:03:25;;;;;;;38.33;29.35;;;20.00;94.40;;;;;;5074363;28;20468;-77
2021/06/20 02:05:52;;;;;;;33.92;27.55;;;20.10;94.50;;;;;;5074256;28;20039;-77
2021/06/20 02:08:19;;;;;;;33.75;28.45;;;20.10;94.50;;;;;;5073031;28;20037;-77
2021/06/20 02:10:49;;;;;;;36.15;29.05;;;20.10;94.50;;;;;;5074154;28;20052;-77
2021/06/20 02:13:15;;;;;;;34.42;29.08;;;20.10;94.60;;;;;;5072748;28;20027;-77
2021/06/20 02:15:41;;;;;;;35.17;30.08;;;20.10;94.60;;;;;;5074052;28;20041;-77
2021/06/20 02:18:07;;;;;;;36.55;31.35;;;20.10;94.60;;;;;;5072599;28;20090;-76
2021/06/20 02:20:32;;;;;;;36.08;29.42;;;20.10;94.70;;;;;;5072706;28;20032;-76
2021/06/20 02:22:59;;;;;;;36.63;29.10;;;20.10;94.70;;;;;;5072617;28;20024;-77
2021/06/20 02:25:25;;;;;;;36.42;30.88;;;20.10;94.80;;;;;;5089356;28;20016;-77
2021/06/20 02:27:53;;;;;;;35.92;29.20;;;20.10;94.80;;;;;;5072593;28;20017;-77
2021/06/20 02:30:20;;;;;;;34.35;29.50;;;20.10;94.80;;;;;;5073686;28;20029;-77
2021/06/20 02:32:46;;;;;;;37.42;28.80;;;20.20;94.90;;;;;;5072436;28;20170;-77
2021/06/20 02:35:13;;;;;;;34.13;28.08;;;20.20;94.80;;;;;;5073541;28;20024;-77
2021/06/20 02:37:40;;;;;;;33.42;29.08;;;20.20;94.80;;;;;;5072098;28;20021;-77
2021/06/20 02:40:07;;;;;;;33.40;28.85;;;20.20;94.80;;;;;;5072484;28;20113;-76
2021/06/20 02:42:33;;;;;;;36.47;29.98;;;20.20;94.70;;;;;;5072306;28;20036;-77
2021/06/20 02:44:59;;;;;;;37.83;31.00;;;20.20;94.70;;;;;;5073571;28;20020;-77
2021/06/20 02:47:24;;;;;;;36.33;29.83;;;20.20;94.70;;;;;;5055576;28;20098;-77
2021/06/20 02:49:51;;;;;;;38.08;32.97;;;20.20;94.80;;;;;;5072435;28;20502;-77
2021/06/20 02:52:17;;;;;;;37.85;33.58;;;20.20;94.70;;;;;;5072100;28;20028;-77
2021/06/20 02:54:49;;;;;;;40.42;32.63;;;20.10;94.70;;;;;;5055455;28;20385;-79
2021/06/20 02:57:21;;;;;;;33.47;28.50;;;20.10;94.70;;;;;;5073280;28;20108;-78
2021/06/20 02:59:46;;;;;;;38.78;30.48;;;20.10;94.70;;;;;;5072503;28;20032;-79
2021/06/20 03:02:12;;;;;;;36.17;30.92;;;20.10;94.60;;;;;;5073349;28;20112;-78
2021/06/20 03:04:38;;;;;;;39.90;33.00;;;20.10;94.60;;;;;;5073370;28;20357;-77
2021/06/20 03:07:05;;;;;;;40.70;33.88;;;20.10;94.60;;;;;;5088728;28;20028;-78
2021/06/20 03:09:30;;;;;;;39.08;32.80;;;20.10;94.60;;;;;;5073251;28;20047;-77
2021/06/20 03:11:56;;;;;;;39.70;33.38;;;20.10;94.50;;;;;;5072073;28;20464;-78
2021/06/20 03:14:22;;;;;;;41.28;34.38;;;20.10;94.50;;;;;;5071977;28;20025;-78
2021/06/20 03:16:48;;;;;;;37.25;32.13;;;20.10;94.50;;;;;;5073246;28;20147;-77
2021/06/20 03:19:14;;;;;;;40.33;33.22;;;20.10;94.80;;;;;;5072970;28;20027;-78
2021/06/20 03:21:41;;;;;;;38.78;33.17;;;20.00;94.40;;;;;;5073135;28;20078;-77
2021/06/20 03:24:07;;;;;;;39.97;34.50;;;20.00;94.40;;;;;;5055214;28;20480;-78
2021/06/20 03:26:33;;;;;;;40.72;33.72;;;20.00;94.40;;;;;;5071759;28;20101;-78
2021/06/20 03:28:59;;;;;;;42.78;37.25;;;20.00;94.40;;;;;;5073133;28;20036;-78
2021/06/20 03:31:25;;;;;;;43.20;36.88;;;19.90;94.30;;;;;;5071710;28;20063;-77
2021/06/20 03:33:52;;;;;;;38.80;32.45;;;19.90;94.40;;;;;;5073097;28;20029;-78
2021/06/20 03:36:18;;;;;;;40.88;36.05;;;19.90;94.30;;;;;;5072872;28;20427;-78
2021/06/20 03:38:45;;;;;;;41.05;35.67;;;19.90;94.30;;;;;;5072831;28;20031;-77
2021/06/20 03:41:11;;;;;;;44.78;36.05;;;19.80;94.40;;;;;;5071764;28;20472;-79
2021/06/20 03:43:38;;;;;;;58.17;44.22;;;19.80;94.70;;;;;;5071715;28;20438;-78
2021/06/20 03:46:04;;;;;;;43.75;37.72;;;19.70;94.40;;;;;;5071589;28;20025;-78
2021/06/20 03:48:30;;;;;;;44.92;38.35;;;19.70;94.70;;;;;;5054995;28;20082;-79
2021/06/20 03:50:55;;;;;;;52.78;41.70;;;19.70;94.50;;;;;;5054848;28;20115;-77
2021/06/20 03:53:21;;;;;;;53.60;43.85;;;19.60;94.50;;;;;;5072766;28;20033;-77
2021/06/20 03:55:47;;;;;;;56.03;42.85;;;19.50;94.50;;;;;;5054874;28;20029;-77
2021/06/20 03:58:12;;;;;;;49.72;39.63;;;19.50;94.50;;;;;;5054732;28;20066;-79
2021/06/20 04:00:38;;;;;;;49.63;41.83;;;19.40;94.50;;;;;;5074271;28;20044;-77
2021/06/20 04:03:05;;;;;;;48.78;40.53;;;19.40;94.50;;;;;;5073474;28;20390;-78
2021/06/20 04:05:31;;;;;;;46.33;36.97;;;19.30;94.50;;;;;;5092073;28;20028;-77
2021/06/20 04:07:58;;;;;;;46.03;36.00;;;19.20;94.60;;;;;;5090132;28;20020;-77
2021/06/20 04:10:24;;;;;;;38.10;32.00;;;19.20;94.60;;;;;;5091731;28;21071;-77
2021/06/20 04:12:50;;;;;;;38.85;31.40;;;19.10;94.60;;;;;;5094863;28;20116;-78
2021/06/20 04:15:15;;;;;;;43.83;33.08;;;19.00;94.60;;;;;;5093201;28;20043;-78
2021/06/20 04:17:42;;;;;;;40.03;31.65;;;19.00;94.60;;;;;;5076428;28;20040;-77
2021/06/20 04:20:11;;;;;;;40.72;30.10;;;18.90;94.70;;;;;;5077489;28;20055;-77
2021/06/20 04:22:37;;;;;;;39.72;28.83;;;18.90;94.70;;;;;;5093715;28;20476;-78
2021/06/20 04:25:03;;;;;;;43.08;31.45;;;18.90;94.80;;;;;;5095076;28;20032;-79
2021/06/20 04:27:29;;;;;;;35.28;27.77;;;18.80;94.90;;;;;;5095296;28;20103;-76
2021/06/20 04:29:54;;;;;;;40.00;31.13;;;18.80;94.90;;;;;;5077992;28;20118;-77
2021/06/20 04:32:20;;;;;;;42.92;32.38;;;18.80;95.00;;;;;;5077703;28;20028;-77
2021/06/20 04:34:46;;;;;;;46.40;33.60;;;18.80;95.00;;;;;;5095096;28;20032;-76
2021/06/20 04:37:11;;;;;;;46.25;33.50;;;18.80;95.00;;;;;;5095037;28;20028;-78
2021/06/20 04:39:37;;;;;;;46.03;35.63;;;18.80;95.20;;;;;;5095006;28;20415;-77
2021/06/20 04:42:05;;;;;;;45.75;33.28;;;18.80;95.10;;;;;;5095001;28;20475;-76
2021/06/20 04:44:43;;;;;;;48.75;36.70;;;18.80;95.20;;;;;;5096083;28;20099;-77
2021/06/20 04:47:14;;;;;;;50.50;36.28;;;18.70;95.20;;;;;;5094966;28;20155;-77
2021/06/20 04:49:40;;;;;;;51.58;39.08;;;18.80;95.20;;;;;;5096001;28;20048;-76
2021/06/20 04:52:07;;;;;;;49.58;36.72;;;18.80;95.20;;;;;;5077792;28;20482;-79
2021/06/20 04:54:36;;;;;;;56.95;40.53;;;18.80;95.20;;;;;;5095918;28;20371;-78
2021/06/20 04:57:03;;;;;;;56.72;40.92;;;18.80;95.20;;;;;;5095754;28;20061;-78
2021/06/20 04:59:29;;;;;;;47.78;34.53;;;18.80;95.20;;;;;;5095709;28;20039;-77
2021/06/20 05:01:55;;;;;;;55.30;38.38;;;18.80;95.50;;;;;;5095779;28;20039;-78
2021/06/20 05:04:21;;;;;;;52.90;35.80;;;18.80;95.20;;;;;;5094512;28;20396;-77
2021/06/20 05:06:46;;;;;;;51.72;36.97;;;18.80;95.20;;;;;;5077328;28;20499;-77
2021/06/20 05:09:12;;;;;;;45.38;34.20;;;18.80;95.20;;;;;;5077355;28;20115;-77
2021/06/20 05:11:38;;;;;;;41.72;31.50;;;18.80;95.10;;;;;;5077388;28;20030;-79
2021/06/20 05:14:03;;;;;;;45.17;32.70;;;18.90;95.10;;;;;;5094281;28;20024;-78
2021/06/20 05:16:29;;;;;;;46.47;35.40;;;18.90;95.10;;;;;;5094218;28;20024;-80
2021/06/20 05:18:55;;;;;;;46.92;36.10;;;18.90;95.10;;;;;;5095396;28;20028;-77
2021/06/20 05:21:20;;;;;;;45.20;32.53;;;18.90;95.10;;;;;;5094164;28;20522;-78
2021/06/20 05:23:47;;;;;;;54.65;38.05;;;18.90;95.10;;;;;;5091782;28;20495;-78
2021/06/20 05:26:13;;;;;;;55.53;38.22;;;18.90;95.10;;;;;;5093413;28;20025;-80
2021/06/20 05:28:38;;;;;;;53.28;37.70;;;18.90;95.10;;;;;;5092931;28;20039;-77
2021/06/20 05:31:05;;;;;;;50.83;35.95;;;18.90;95.10;;;;;;5092664;28;20037;-78
2021/06/20 05:33:31;;;;;;;43.63;31.90;;;18.90;95.10;;;;;;5093924;28;20056;-78
2021/06/20 05:35:56;;;;;;;50.53;37.20;;;19.00;95.10;;;;;;5093820;28;20454;-77
2021/06/20 05:38:22;;;;;;;51.80;37.72;;;19.00;95.00;;;;;;5076024;28;20028;-78
2021/06/20 05:40:47;;;;;;;55.67;40.28;;;19.00;95.00;;;;;;5093558;28;20024;-79
2021/06/20 05:43:13;;;;;;;56.70;39.25;;;19.00;95.00;;;;;;5093717;28;20031;-79
2021/06/20 05:45:39;;;;;;;57.28;40.30;;;19.00;95.00;;;;;;5095024;28;20030;-78
2021/06/20 05:48:05;;;;;;;51.83;37.78;;;19.00;95.00;;;;;;5076756;28;20107;-77
2021/06/20 05:50:30;;;;;;;53.20;38.17;;;19.00;95.00;;;;;;5093324;28;20123;-78
2021/06/20 05:52:56;;;;;;;51.78;36.20;;;19.00;95.00;;;;;;5093176;28;20024;-77
2021/06/20 05:55:22;;;;;;;52.83;39.03;;;19.00;95.00;;;;;;5076558;28;20035;-77
2021/06/20 05:57:48;;;;;;;57.65;40.70;;;19.00;94.90;;;;;;5093267;28;20102;-77
2021/06/20 06:00:14;;;;;;;58.63;39.60;;;19.00;94.90;;;;;;5093576;28;20093;-79
2021/06/20 06:02:40;;;;;;;53.90;38.20;;;19.00;94.90;;;;;;5093356;28;20028;-79
2021/06/20 06:05:07;;;;;;;47.92;35.05;;;19.00;94.90;;;;;;5076405;28;20020;-79
2021/06/20 06:07:33;;;;;;;55.30;37.75;;;19.00;94.90;;;;;;5093281;28;20391;-82
2021/06/20 06:09:59;;;;;;;53.75;36.67;;;19.10;94.90;;;;;;5076682;28;20111;-78
2021/06/20 06:12:25;;;;;;;50.95;36.58;;;19.10;94.90;;;;;;5076602;28;20123;-79
2021/06/20 06:14:52;;;;;;;52.15;36.00;;;19.10;94.80;;;;;;5094945;28;20068;-81
2021/06/20 06:17:20;;;;;;;50.90;36.50;;;19.20;94.80;;;;;;5093402;28;20024;-81
2021/06/20 06:19:50;;;;;;;55.60;38.55;;;19.30;94.70;;;;;;5093286;28;20020;-77
2021/06/20 06:22:17;;;;;;;55.00;36.58;;;19.30;94.50;;;;;;5090182;28;20016;-78
2021/06/20 06:24:43;;;;;;;51.88;38.42;;;19.40;94.50;;;;;;5093829;28;20020;-81
2021/06/20 06:27:09;;;;;;;49.97;34.92;;;19.40;94.40;;;;;;5092768;28;20024;-80
2021/06/20 06:29:35;;;;;;;50.20;37.05;;;19.40;94.30;;;;;;5090228;28;20043;-78
2021/06/20 06:32:01;;;;;;;50.08;36.95;;;19.40;94.10;;;;;;5092332;28;20020;-80
2021/06/20 06:34:26;;;;;;;51.50;37.80;;;19.40;94.10;;;;;;5092421;28;20051;-78
2021/06/20 06:36:52;;;;;;;47.22;34.90;;;19.40;94.00;;;;;;5092593;28;20025;-80
2021/06/20 06:39:19;;;;;;;48.78;34.03;;;19.50;94.00;;;;;;5066746;28;20025;-79
2021/06/20 06:41:44;;;;;;;43.33;31.73;;;19.60;93.90;;;;;;5090837;28;20058;-80
2021/06/20 06:44:10;;;;;;;45.15;33.63;;;19.60;93.90;;;;;;5058679;28;20056;-80
2021/06/20 06:46:35;;;;;;;45.33;34.03;;;19.70;93.80;;;;;;5072995;28;20033;-76
2021/06/20 06:49:01;;;;;;;45.10;32.17;;;19.80;93.60;;;;;;5072068;28;20033;-81
2021/06/20 06:51:27;;;;;;;45.83;35.20;;;19.80;93.40;;;;;;5072496;28;20388;-79
2021/06/20 06:53:52;;;;;;;45.10;33.63;;;19.90;93.60;;;;;;5089345;28;20035;-79
2021/06/20 06:56:18;;;;;;;43.90;33.95;;;20.00;93.10;;;;;;5089578;28;20192;-79
2021/06/20 06:58:44;;;;;;;42.17;33.72;;;20.10;93.00;;;;;;5089391;28;20029;-77
2021/06/20 07:01:09;;;;;;;45.00;34.72;;;20.20;92.80;;;;;;5072275;28;20472;-78
2021/06/20 07:03:35;;;;;;;48.60;36.45;;;20.20;92.40;;;;;;5089754;28;20029;-77
2021/06/20 07:06:01;;;;;;;47.53;34.58;;;20.20;92.10;;;;;;5089071;28;20020;-79
2021/06/20 07:08:27;;;;;;;47.70;36.92;;;20.20;92.00;;;;;;5089099;28;20033;-77
2021/06/20 07:10:52;;;;;;;43.78;33.22;;;20.10;91.80;;;;;;5089739;28;20121;-78
2021/06/20 07:13:18;;;;;;;46.63;35.25;;;20.10;91.90;;;;;;5089382;28;20024;-77
2021/06/20 07:15:43;;;;;;;41.78;33.53;;;20.10;91.80;;;;;;5088928;28;20153;-77
2021/06/20 07:18:09;;;;;;;41.63;31.95;;;20.10;91.80;;;;;;5075039;28;20487;-78
2021/06/20 07:20:35;;;;;;;39.95;31.08;;;20.10;91.70;;;;;;5075070;28;20474;-81
2021/06/20 07:23:00;;;;;;;41.35;32.00;;;20.20;91.50;;;;;;5059094;28;20405;-82
2021/06/20 07:25:26;;;;;;;41.80;32.28;;;20.20;91.30;;;;;;5075366;28;20028;-79
2021/06/20 07:27:52;;;;;;;44.58;33.70;;;20.10;91.20;;;;;;5092105;28;20035;-78
2021/06/20 07:30:20;;;;;;;41.55;31.67;;;20.20;91.30;;;;;;5075564;28;20032;-77
2021/06/20 07:32:46;;;;;;;39.85;32.00;;;20.20;91.30;;;;;;5075540;28;20032;-76
2021/06/20 07:35:13;;;;;;;39.15;30.33;;;20.20;91.20;;;;;;5092183;28;20043;-77
2021/06/20 07:37:39;;;;;;;37.78;29.20;;;20.20;91.30;;;;;;5075542;28;20028;-77
2021/06/20 07:40:11;;;;;;;35.47;27.98;;;20.20;91.30;;;;;;5093231;28;20382;-78
2021/06/20 07:42:37;;;;;;;32.63;26.65;;;20.30;91.30;;;;;;5093179;28;20532;-78
2021/06/20 07:45:04;;;;;;;31.67;25.08;;;20.30;91.40;;;;;;5092268;28;20070;-80
2021/06/20 07:47:30;;;;;;;32.30;24.30;;;20.40;91.30;;;;;;5094692;28;20040;-77
2021/06/20 07:49:55;;;;;;;33.60;25.88;;;20.50;91.10;;;;;;5095494;28;20050;-78
2021/06/20 07:52:21;;;;;;;35.35;27.02;;;20.50;90.90;;;;;;5094991;28;20040;-78
2021/06/20 07:54:50;;;;;;;27.50;21.27;;;20.50;90.70;;;;;;5096638;28;20379;-77
2021/06/20 07:57:20;;;;;;;30.08;22.63;;;20.60;90.80;;;;;;5078993;28;20032;-77
2021/06/20 07:59:47;;;;;;;30.30;21.38;;;20.70;90.70;;;;;;5096497;28;20089;-78
2021/06/20 08:02:14;;;;;;;31.83;24.92;;;20.70;90.60;;;;;;5095516;28;20020;-76
2021/06/20 08:04:40;;;;;;;30.13;22.48;;;20.80;90.50;;;;;;5096859;28;20024;-76
2021/06/20 08:07:06;;;;;;;31.88;23.85;;;20.80;90.40;;;;;;5078617;28;20078;-77
2021/06/20 08:09:32;;;;;;;28.17;22.40;;;20.90;90.20;;;;;;5078659;28;20070;-77
2021/06/20 08:11:58;;;;;;;28.17;20.98;;;20.90;90.00;;;;;;5096858;28;20055;-77
2021/06/20 08:14:24;;;;;;;25.33;19.33;;;20.90;90.00;;;;;;5095601;28;20418;-76
2021/06/20 08:16:49;;;;;;;29.38;22.30;;;20.90;90.30;;;;;;5095337;28;20028;-78
2021/06/20 08:19:15;;;;;;;29.92;22.40;;;20.90;89.90;;;;;;5096454;28;20084;-77
2021/06/20 08:21:43;;;;;;;25.80;18.58;;;20.90;90.00;;;;;;5078191;28;20058;-76
2021/06/20 08:24:09;;;;;;;28.42;21.58;;;20.90;90.20;;;;;;5078851;28;20043;-77
2021/06/20 08:26:35;;;;;;;26.02;18.75;;;20.90;89.50;;;;;;5078151;28;20024;-76
2021/06/20 08:29:01;;;;;;;24.33;18.48;;;20.90;89.50;;;;;;5096488;28;20475;-77
2021/06/20 08:31:27;;;;;;;27.13;18.95;;;20.90;89.40;;;;;;5095088;28;20034;-76
2021/06/20 08:33:52;;;;;;;26.55;19.02;;;21.00;89.00;;;;;;5095159;28;20142;-76
2021/06/20 08:36:18;;;;;;;24.05;17.98;;;21.00;89.00;;;;;;5094852;28;20490;-78
2021/06/20 08:38:44;;;;;;;25.80;19.20;;;21.00;88.60;;;;;;5077778;28;20039;-77
2021/06/20 08:41:13;;;;;;;28.60;20.55;;;21.00;89.20;;;;;;5078039;28;20115;-76
2021/06/20 08:43:39;;;;;;;28.90;19.88;;;21.00;88.40;;;;;;5094744;28;20031;-77
2021/06/20 08:46:05;;;;;;;25.55;18.15;;;21.00;88.30;;;;;;5077727;28;20032;-77
2021/06/20 08:48:33;;;;;;;24.45;18.55;;;21.10;88.30;;;;;;5095963;28;20043;-79
2021/06/20 08:50:59;;;;;;;28.45;20.48;;;21.10;88.10;;;;;;5077870;28;20024;-78
2021/06/20 08:53:25;;;;;;;24.77;18.50;;;21.10;87.90;;;;;;5078144;28;20101;-77
2021/06/20 08:55:51;;;;;;;25.45;18.75;;;21.00;87.90;;;;;;5094495;28;20036;-77
2021/06/20 08:58:20;;;;;;;27.17;19.65;;;21.10;87.90;;;;;;5076482;28;20039;-77
2021/06/20 09:00:46;;;;;;;26.67;17.67;;;21.10;87.80;;;;;;5094050;28;20044;-77
2021/06/20 09:03:12;;;;;;;25.80;17.48;;;21.10;87.80;;;;;;5094298;28;20077;-77
2021/06/20 09:05:37;;;;;;;25.10;17.10;;;21.10;87.70;;;;;;5094418;28;20024;-77
2021/06/20 09:08:16;;;;;;;23.58;16.10;;;21.20;87.50;;;;;;5094519;28;20061;-77
2021/06/20 09:10:42;;;;;;;23.08;16.40;;;21.20;86.90;;;;;;5094298;28;20062;-77
2021/06/20 09:13:07;;;;;;;22.92;16.15;;;21.30;86.80;;;;;;5094235;28;20048;-76
2021/06/20 09:15:34;;;;;;;21.55;16.10;;;21.40;87.20;;;;;;5077267;28;20066;-76
2021/06/20 09:18:07;;;;;;;19.35;14.95;;;21.40;86.10;;;;;;5093892;28;20093;-77
2021/06/20 09:20:44;;;;;;;21.15;15.68;;;21.50;86.00;;;;;;5095439;28;20019;-76
2021/06/20 09:23:16;;;;;;;19.10;14.57;;;21.60;85.70;;;;;;5094145;28;20387;-78
2021/06/20 09:25:52;;;;;;;20.77;13.93;;;21.70;85.10;;;;;;5094037;28;20429;-77
2021/06/20 09:28:18;;;;;;;17.63;12.80;;;21.80;84.90;;;;;;5093874;28;20123;-76
2021/06/20 09:30:52;;;;;;;19.00;13.68;;;21.90;84.80;;;;;;5093902;28;20059;-77
2021/06/20 09:33:19;;;;;;;18.25;13.55;;;22.00;84.10;;;;;;5093727;28;20035;-80
2021/06/20 09:35:52;;;;;;;19.23;14.05;;;22.10;83.90;;;;;;5094232;28;20427;-82
2021/06/20 09:38:23;;;;;;;19.25;13.10;;;22.20;83.30;;;;;;5095086;28;20050;-77
2021/06/20 09:41:02;;;;;;;16.90;12.13;;;22.30;82.80;;;;;;5093598;28;20380;-78
2021/06/20 09:43:28;;;;;;;17.83;11.65;;;22.40;82.70;;;;;;5095002;28;20028;-76
2021/06/20 09:45:54;;;;;;;15.38;11.20;;;22.40;82.10;;;;;;5076907;28;20024;-77
2021/06/20 09:48:28;;;;;;;16.40;11.20;;;22.50;81.40;;;;;;5076742;28;20028;-81
2021/06/20 09:50:59;;;;;;;15.73;11.20;;;22.60;81.20;;;;;;5094825;28;20544;-77
2021/06/20 09:53:39;;;;;;;15.45;10.18;;;22.60;80.60;;;;;;5093499;28;20036;-77
2021/06/20 09:56:30;;;;;;;14.90;10.63;;;22.70;80.30;;;;;;5093378;28;20479;-78
2021/06/20 09:59:07;;;;;;;13.20;9.10;;;22.70;80.10;;;;;;5093325;28;20429;-77
2021/06/20 10:01:42;;;;;;;15.68;9.73;;;22.80;80.20;;;;;;5093227;28;20043;-76
2021/06/20 10:04:07;;;;;;;14.48;10.30;;;22.80;80.00;;;;;;5093329;28;20029;-78
2021/06/20 10:06:33;;;;;;;12.68;9.18;;;22.90;79.50;;;;;;5076373;28;20024;-78
2021/06/20 10:08:59;;;;;;;11.65;8.88;;;23.00;79.40;;;;;;5093297;28;20073;-78
2021/06/20 10:11:25;;;;;;;13.15;9.35;;;23.10;79.30;;;;;;5076364;28;20093;-78
2021/06/20 10:13:51;;;;;;;12.35;9.13;;;23.10;78.40;;;;;;5076407;28;20028;-78
2021/06/20 10:16:37;;;;;;;14.57;10.85;;;23.20;78.40;;;;;;5092934;28;20024;-77
2021/06/20 10:19:16;;;;;;;12.00;8.40;;;23.20;77.80;;;;;;5094182;28;20016;-77
2021/06/20 10:21:45;;;;;;;10.57;8.00;;;23.20;77.20;;;;;;5092995;28;20478;-76
2021/06/20 10:24:20;;;;;;;10.60;7.80;;;23.20;76.80;;;;;;5092970;28;20069;-77
2021/06/20 10:26:51;;;;;;;10.45;7.60;;;23.20;76.40;;;;;;5094206;28;20076;-81
2021/06/20 10:29:23;;;;;;;10.65;7.85;;;23.30;76.20;;;;;;5094283;28;20028;-79
2021/06/20 10:31:50;;;;;;;10.75;7.63;;;23.30;76.00;;;;;;5092899;28;20112;-78
2021/06/20 10:34:24;;;;;;;11.13;7.60;;;23.40;76.00;;;;;;5092699;28;20032;-78
2021/06/20 10:36:53;;;;;;;12.48;8.50;;;23.50;75.60;;;;;;5092931;28;20400;-78
2021/06/20 10:39:20;;;;;;;10.60;7.72;;;23.60;74.80;;;;;;5092493;28;20383;-80
2021/06/20 10:41:46;;;;;;;12.55;8.63;;;23.70;74.10;;;;;;5092722;28;20028;-76
2021/06/20 10:44:11;;;;;;;15.30;8.35;;;23.70;73.90;;;;;;5092703;28;20038;-78
2021/06/20 10:46:39;;;;;;;14.95;8.05;;;23.90;73.60;;;;;;5075842;28;20024;-78
2021/06/20 10:49:17;;;;;;;11.05;7.53;;;24.10;73.40;;;;;;5092556;28;20043;-78
2021/06/20 10:51:43;;;;;;;10.77;6.70;;;24.30;72.80;;;;;;5092443;28;20365;-79
2021/06/20 10:54:19;;;;;;;11.32;6.43;;;24.30;72.40;;;;;;5092911;28;20466;-79
2021/06/20 10:56:58;;;;;;;9.52;6.40;;;24.40;72.10;;;;;;5093629;28;20020;-81
2021/06/20 10:59:24;;;;;;;9.45;6.68;;;24.50;71.20;;;;;;5092151;28;20024;-78
2021/06/20 11:01:51;;;;;;;9.50;6.38;;;24.60;70.70;;;;;;5092379;28;20016;-81
2021/06/20 11:04:16;;;;;;;9.88;6.45;;;24.70;70.00;;;;;;5092290;28;20012;-80
2021/06/20 11:06:54;;;;;;;9.07;6.25;;;25.00;69.20;;;;;;5093838;28;20021;-78
2021/06/20 11:09:22;;;;;;;9.80;7.07;;;25.20;69.10;;;;;;5075593;28;20024;-79
2021/06/20 11:11:52;;;;;;;9.45;5.80;;;25.40;68.60;;;;;;5092816;28;20384;-78
2021/06/20 11:14:19;;;;;;;8.95;6.45;;;25.40;67.90;;;;;;5093691;28;20027;-78
2021/06/20 11:16:47;;;;;;;7.35;5.15;;;25.50;67.40;;;;;;5093563;28;20487;-77
2021/06/20 11:19:25;;;;;;;7.68;5.20;;;25.50;67.00;;;;;;5092046;28;20031;-82
2021/06/20 11:21:52;;;;;;;6.53;4.43;;;25.50;66.20;;;;;;5075173;28;20122;-76
2021/06/20 11:24:21;;;;;;;5.03;3.72;;;25.50;66.10;;;;;;5091993;28;20016;-79
2021/06/20 11:26:56;;;;;;;6.22;3.97;;;25.50;65.90;;;;;;5092280;28;20505;-83
2021/06/20 11:29:23;;;;;;;7.82;4.95;;;25.60;65.90;;;;;;5092190;28;20111;-79
2021/06/20 11:31:51;;;;;;;8.02;5.40;;;25.60;65.60;;;;;;5075411;28;20022;-78
2021/06/20 11:34:17;;;;;;;13.00;7.00;;;25.70;65.40;;;;;;5093231;28;20106;-78
2021/06/20 11:36:49;;;;;;;11.10;6.90;;;25.80;65.40;;;;;;5091912;28;20529;-81
2021/06/20 11:39:16;;;;;;;9.10;6.32;;;25.80;65.20;;;;;;5091644;28;20028;-79
2021/06/20 11:41:50;;;;;;;10.02;6.88;;;26.00;65.20;;;;;;5093358;28;20035;-78
2021/06/20 11:44:17;;;;;;;9.25;6.15;;;26.20;64.80;;;;;;5091951;28;20476;-79
2021/06/20 11:46:45;;;;;;;8.45;6.30;;;26.50;64.50;;;;;;5075786;28;20107;-79
2021/06/20 11:49:15;;;;;;;8.10;5.13;;;26.70;63.90;;;;;;5091957;28;20383;-78
2021/06/20 11:51:49;;;;;;;7.72;5.20;;;26.80;63.30;;;;;;5091804;28;20028;-80
2021/06/20 11:54:15;;;;;;;6.88;4.45;;;26.80;62.60;;;;;;5092951;28;20107;-79
2021/06/20 11:56:46;;;;;;;7.22;4.07;;;26.90;62.40;;;;;;5091886;28;20138;-79
2021/06/20 11:59:13;;;;;;;6.85;4.38;;;27.10;61.70;;;;;;5092982;28;20020;-78
2021/06/20 12:01:44;;;;;;;6.53;4.15;;;27.20;61.30;;;;;;5093120;28;20483;-80
2021/06/20 12:04:12;;;;;;;6.13;4.25;;;27.20;60.00;;;;;;5091712;28;20502;-79
2021/06/20 12:06:38;;;;;;;6.72;4.38;;;27.20;60.00;;;;;;5092790;28;20483;-79
2021/06/20 12:09:07;;;;;;;6.18;3.95;;;27.20;59.60;;;;;;5074922;28;20034;-78
2021/06/20 12:11:36;;;;;;;6.60;3.75;;;27.20;59.70;;;;;;5091593;28;20028;-81
2021/06/20 12:14:04;;;;;;;5.95;3.60;;;27.20;59.50;;;;;;5091189;28;20399;-80
2021/06/20 12:16:31;;;;;;;6.40;3.22;;;27.30;59.50;;;;;;5093517;28;20435;-79
2021/06/20 12:18:57;;;;;;;5.93;3.05;;;27.30;58.90;;;;;;5091856;28;20036;-80
2021/06/20 12:21:28;;;;;;;5.43;2.65;;;27.30;58.20;;;;;;5073513;28;20032;-78
2021/06/20 12:23:58;;;;;;;5.07;2.88;;;27.20;58.10;;;;;;5074593;28;20480;-77
2021/06/20 12:26:29;;;;;;;6.20;3.50;;;27.20;58.10;;;;;;5074642;28;20047;-77
2021/06/20 12:28:56;;;;;;;4.78;2.60;;;27.10;58.10;;;;;;5074798;28;20039;-77
2021/06/20 12:31:23;;;;;;;4.65;3.10;;;27.30;58.00;;;;;;5090540;28;20107;-81